Time,TemperatureF,DewpointF,PressureIn,WindDirection,WindDirectionDegrees,WindSpeedMPH,WindSpeedGustMPH,Humidity,HourlyPrecipIn,Conditions,Clouds,dailyrainin,SoftwareType,DateUTC
2013-08-29 00:14:00,78.0,71.0,30.01,South,173,5.0,7.0,80,0.00,,,0.00,,2013-08-29 05:14:00,
2013-08-29 00:23:00,78.0,71.0,30.01,South,176,4.0,6.0,80,0.00,,,0.00,,2013-08-29 05:23:00,
2013-08-29 00:52:00,77.0,71.0,30.01,SSE,160,4.0,7.0,82,0.00,,,0.00,,2013-08-29 05:52:00,
2013-08-29 01:12:00,77.0,71.0,30.01,South,173,3.0,6.0,83,0.00,,,0.00,,2013-08-29 06:12:00,
2013-08-29 01:22:00,76.0,71.0,30.01,South,172,2.0,3.0,84,0.00,,,0.00,,2013-08-29 06:22:00,
2013-08-29 01:52:00,76.0,71.0,30.01,South,190,3.0,6.0,84,0.00,,,0.00,,2013-08-29 06:52:00,
2013-08-29 02:12:00,77.0,71.0,30.01,South,174,3.0,7.0,82,0.00,,,0.00,,2013-08-29 07:12:00,
2013-08-29 02:22:00,77.0,71.0,30.01,South,182,4.0,7.0,81,0.00,,,0.00,,2013-08-29 07:22:00,
2013-08-29 02:53:00,77.0,70.0,30.00,SSW,195,4.0,7.0,80,0.00,,,0.00,,2013-08-29 07:53:00,
2013-08-29 03:12:00,78.0,71.0,30.00,South,179,4.0,7.0,79,0.00,,,0.00,,2013-08-29 08:12:00,
2013-08-29 03:22:00,78.0,71.0,30.00,South,186,3.0,6.0,79,0.00,,,0.00,,2013-08-29 08:22:00,
2013-08-29 03:52:00,77.0,70.0,30.00,South,182,3.0,6.0,78,0.00,,,0.00,,2013-08-29 08:52:00,
2013-08-29 04:12:00,78.0,71.0,30.00,South,176,4.0,10.0,78,0.00,,,0.00,,2013-08-29 09:12:00,
2013-08-29 04:22:00,77.0,70.0,30.00,SSW,205,5.0,7.0,78,0.00,,,0.00,,2013-08-29 09:22:00,
2013-08-29 04:43:00,77.0,70.0,29.99,South,172,4.0,9.0,78,0.00,,,0.00,,2013-08-29 09:43:00,
2013-08-29 04:54:00,77.0,70.0,29.99,South,175,3.0,9.0,78,0.00,,,0.00,,2013-08-29 09:54:00,
2013-08-29 05:14:00,77.0,70.0,29.99,South,186,3.0,9.0,79,0.00,,,0.00,,2013-08-29 10:14:00,
2013-08-29 05:24:00,76.0,69.0,29.99,South,169,0.0,3.0,80,0.00,,,0.00,,2013-08-29 10:24:00,
2013-08-29 05:53:00,76.0,70.0,29.99,South,186,4.0,6.0,81,0.00,,,0.00,,2013-08-29 10:53:00,
2013-08-29 06:12:00,75.0,69.0,29.99,South,181,3.0,6.0,82,0.00,,,0.00,,2013-08-29 11:12:00,
2013-08-29 06:22:00,75.0,69.0,30.00,South,183,3.0,6.0,83,0.00,,,0.00,,2013-08-29 11:22:00,
2013-08-29 06:52:00,74.0,68.0,29.99,SSW,193,4.0,6.0,83,0.00,,,0.00,,2013-08-29 11:52:00,
2013-08-29 07:11:00,74.0,68.0,29.99,SSW,192,5.0,9.0,83,0.00,,,0.00,,2013-08-29 12:11:00,
2013-08-29 07:22:00,75.0,69.0,30.00,South,182,4.0,9.0,82,0.00,,,0.00,,2013-08-29 12:22:00,
2013-08-29 07:42:00,74.0,68.0,30.00,SSW,194,4.0,10.0,82,0.00,,,0.00,,2013-08-29 12:42:00,
2013-08-29 07:52:00,75.0,69.0,30.00,SSE,161,0.0,7.0,82,0.00,,,0.00,,2013-08-29 12:52:00,
2013-08-29 08:12:00,74.0,68.0,30.00,NE,45,0.0,0.0,82,0.00,,,0.00,,2013-08-29 13:12:00,
2013-08-29 08:22:00,74.0,68.0,30.00,SSW,202,0.0,0.0,82,0.00,,,0.00,,2013-08-29 13:22:00,
2013-08-29 08:42:00,76.0,69.0,30.00,SSW,196,4.0,7.0,79,0.00,,,0.00,,2013-08-29 13:42:00,
2013-08-29 08:52:00,77.0,69.0,30.00,SSE,167,4.0,9.0,77,0.00,,,0.00,,2013-08-29 13:52:00,
2013-08-29 09:11:00,78.0,69.0,30.00,South,178,5.0,10.0,75,0.00,,,0.00,,2013-08-29 14:11:00,
2013-08-29 09:21:00,79.0,70.0,30.00,SSE,157,3.0,7.0,73,0.00,,,0.00,,2013-08-29 14:21:00,
2013-08-29 09:42:00,80.0,70.0,30.00,SSW,192,3.0,9.0,71,0.00,,,0.00,,2013-08-29 14:42:00,
2013-08-29 09:52:00,81.0,70.0,30.01,South,182,1.0,9.0,69,0.00,,,0.00,,2013-08-29 14:52:00,
2013-08-29 10:12:00,82.0,70.0,30.01,South,186,4.0,8.0,68,0.00,,,0.00,,2013-08-29 15:12:00,
2013-08-29 10:21:00,84.0,71.0,30.01,SSE,153,3.0,7.0,66,0.00,,,0.00,,2013-08-29 15:21:00,
2013-08-29 10:43:00,84.0,71.0,30.01,South,172,5.0,8.0,65,0.00,,,0.00,,2013-08-29 15:43:00,
2013-08-29 10:53:00,85.0,71.0,30.01,SW,219,5.0,9.0,63,0.00,,,0.00,,2013-08-29 15:53:00,
2013-08-29 11:24:00,88.0,72.0,30.01,SSE,163,6.0,11.0,59,0.00,,,0.00,,2013-08-29 16:24:00,
2013-08-29 11:43:00,89.0,71.0,30.01,South,175,3.0,5.0,56,0.00,,,0.00,,2013-08-29 16:43:00,
2013-08-29 11:53:00,89.0,71.0,30.01,South,169,6.0,11.0,55,0.00,,,0.00,,2013-08-29 16:53:00,
2013-08-29 12:13:00,89.0,70.0,30.01,SW,235,1.0,6.0,53,0.00,,,0.00,,2013-08-29 17:13:00,
2013-08-29 12:22:00,91.0,73.0,30.01,SSE,163,4.0,6.0,55,0.00,,,0.00,,2013-08-29 17:22:00,
2013-08-29 12:52:00,92.0,72.0,30.00,South,187,2.0,8.0,52,0.00,,,0.00,,2013-08-29 17:52:00,
2013-08-29 13:12:00,93.0,72.0,29.99,SSE,163,4.0,9.0,50,0.00,,,0.00,,2013-08-29 18:12:00,
2013-08-29 13:21:00,94.0,72.0,29.99,South,169,5.0,9.0,49,0.00,,,0.00,,2013-08-29 18:21:00,
2013-08-29 13:52:00,95.0,72.0,29.98,South,178,3.0,12.0,47,0.00,,,0.00,,2013-08-29 18:52:00,
2013-08-29 14:11:00,95.0,71.0,29.98,South,171,3.0,6.0,46,0.00,,,0.00,,2013-08-29 19:11:00,
2013-08-29 14:22:00,96.0,71.0,29.97,South,171,5.0,10.0,45,0.00,,,0.00,,2013-08-29 19:22:00,
2013-08-29 14:52:00,96.0,68.0,29.97,SSW,201,4.0,12.0,41,0.00,,,0.00,,2013-08-29 19:52:00,
2013-08-29 15:22:00,96.0,69.0,29.96,South,186,6.0,10.0,42,0.00,,,0.00,,2013-08-29 20:22:00,
2013-08-29 15:52:00,96.0,67.0,29.95,WSW,247,7.0,14.0,39,0.00,,,0.00,,2013-08-29 20:52:00,
2013-08-29 16:12:00,96.0,68.0,29.95,SSE,168,4.0,9.0,40,0.00,,,0.00,,2013-08-29 21:12:00,
2013-08-29 16:54:00,96.0,66.0,29.93,SE,135,5.0,12.0,38,0.00,,,0.00,,2013-08-29 21:54:00,
2013-08-29 17:24:00,96.0,66.0,29.92,WNW,293,4.0,11.0,38,0.00,,,0.00,,2013-08-29 22:24:00,
2013-08-29 17:53:00,96.0,67.0,29.92,SSW,200,3.0,9.0,39,0.00,,,0.00,,2013-08-29 22:53:00,
2013-08-29 18:53:00,94.0,67.0,29.92,SSE,161,4.0,7.0,42,0.00,,,0.00,,2013-08-29 23:53:00,
2013-08-29 19:21:00,92.0,68.0,29.91,South,173,2.0,4.0,46,0.00,,,0.00,,2013-08-30 00:21:00,
2013-08-29 19:52:00,90.0,68.0,29.91,South,182,2.0,4.0,49,0.00,,,0.00,,2013-08-30 00:52:00,
2013-08-29 22:22:00,78.0,66.0,29.93,South,182,2.0,3.0,66,0.00,,,0.00,,2013-08-30 03:22:00,
2013-08-29 22:55:00,77.0,65.0,29.93,South,179,2.0,4.0,67,0.00,,,0.00,,2013-08-30 03:55:00,
2013-08-29 23:14:00,76.0,65.0,29.93,South,176,3.0,5.0,68,0.00,,,0.00,,2013-08-30 04:14:00,
2013-08-29 23:24:00,76.0,65.0,29.93,South,176,3.0,3.0,70,0.00,,,0.00,,2013-08-30 04:24:00,
2013-08-29 23:54:00,79.0,66.0,29.94,South,173,6.0,10.0,64,0.00,,,0.00,,2013-08-30 04:54:00,